createdAt,value
2017-10-10T00:01:31.662Z,14.00
2017-10-10T00:03:59.172Z,14.13
2017-10-10T00:06:26.689Z,13.67
2017-10-10T00:08:54.314Z,15.30
2017-10-10T00:11:21.833Z,17.40
2017-10-10T00:13:49.338Z,15.57
2017-10-10T00:16:17.035Z,17.90
2017-10-10T00:18:44.670Z,18.20
2017-10-10T00:21:12.180Z,19.50
2017-10-10T00:23:39.700Z,19.93
2017-10-10T00:26:07.209Z,18.90
2017-10-10T00:28:34.933Z,19.63
2017-10-10T00:31:02.697Z,20.10
2017-10-10T00:33:30.200Z,18.53
2017-10-10T00:35:57.712Z,18.90
2017-10-10T00:38:25.385Z,17.30
2017-10-10T00:40:52.880Z,17.33
2017-10-10T00:43:20.388Z,18.00
2017-10-10T00:45:48.369Z,19.70
2017-10-10T00:48:15.876Z,18.47
2017-10-10T00:50:43.394Z,17.27
2017-10-10T00:53:10.903Z,17.67
2017-10-10T00:55:38.413Z,16.47
2017-10-10T00:58:05.939Z,17.33
2017-10-10T01:00:34.323Z,16.90
2017-10-10T01:03:01.835Z,18.93
2017-10-10T01:05:29.347Z,17.80
2017-10-10T01:07:56.874Z,16.70
2017-10-10T01:10:24.455Z,18.70
2017-10-10T01:12:52.036Z,16.33
2017-10-10T01:15:19.976Z,17.40
2017-10-10T01:17:47.494Z,17.80
2017-10-10T01:20:15.027Z,17.20
2017-10-10T01:22:42.543Z,17.10
2017-10-10T01:25:10.132Z,12.43
2017-10-10T01:27:37.881Z,10.87
2017-10-10T01:30:05.636Z,11.40
2017-10-10T01:32:33.144Z,12.30
2017-10-10T01:35:00.863Z,9.13
2017-10-10T01:37:28.628Z,8.53
2017-10-10T01:39:56.145Z,9.03
2017-10-10T01:42:24.056Z,7.50
2017-10-10T01:44:51.964Z,9.10
2017-10-10T01:47:19.646Z,7.73
2017-10-10T01:49:47.168Z,9.63
2017-10-10T01:52:14.672Z,8.43
2017-10-10T01:54:42.361Z,9.60
2017-10-10T01:57:09.863Z,9.67
2017-10-10T01:59:37.424Z,9.23
2017-10-10T02:02:04.944Z,9.43
2017-10-10T02:04:32.504Z,9.97
2017-10-10T02:07:00.248Z,9.43
2017-10-10T02:09:27.748Z,10.50
2017-10-10T02:11:55.268Z,10.57
2017-10-10T02:14:22.897Z,9.93
2017-10-10T02:16:50.412Z,10.63
2017-10-10T02:19:17.919Z,10.97
2017-10-10T02:21:45.436Z,10.90
2017-10-10T02:24:13.987Z,10.70
2017-10-10T02:26:41.749Z,11.47
2017-10-10T02:29:09.496Z,11.80
2017-10-10T02:31:37.012Z,10.70
2017-10-10T02:34:04.533Z,11.53
2017-10-10T02:36:32.032Z,11.43
2017-10-10T02:39:00.304Z,11.30
2017-10-10T02:41:27.834Z,11.00
2017-10-10T02:43:55.336Z,12.30
2017-10-10T02:46:23.759Z,13.23
2017-10-10T02:48:51.316Z,12.50
2017-10-10T02:51:18.835Z,11.83
2017-10-10T02:53:46.510Z,14.37
2017-10-10T02:56:14.294Z,13.20
2017-10-10T02:58:42.064Z,14.93
2017-10-10T03:01:09.564Z,15.47
2017-10-10T03:03:37.260Z,14.67
2017-10-10T03:06:04.759Z,16.43
2017-10-10T03:08:32.508Z,18.60
2017-10-10T03:11:00.022Z,19.80
2017-10-10T03:13:27.539Z,22.73
2017-10-10T03:15:55.050Z,25.37
2017-10-10T03:18:22.656Z,24.70
2017-10-10T03:20:50.156Z,25.43
2017-10-10T03:23:17.731Z,25.27
2017-10-10T03:25:45.237Z,27.60
2017-10-10T03:28:12.793Z,27.47
2017-10-10T03:30:40.525Z,29.47
2017-10-10T03:33:08.051Z,30.20
2017-10-10T03:35:36.031Z,28.70
2017-10-10T03:38:03.530Z,29.97
2017-10-10T03:40:31.071Z,31.80
2017-10-10T03:42:58.708Z,29.10
2017-10-10T03:45:26.618Z,31.60
2017-10-10T03:47:54.221Z,29.90
2017-10-10T03:50:22.128Z,34.23
2017-10-10T03:52:49.874Z,32.33
2017-10-10T03:55:17.633Z,33.83
2017-10-10T03:57:45.129Z,33.00
2017-10-10T04:00:12.879Z,33.83
2017-10-10T04:02:41.168Z,35.80
2017-10-10T04:05:08.683Z,33.80
2017-10-10T04:07:37.320Z,34.33
2017-10-10T04:10:04.840Z,33.20
2017-10-10T04:12:32.509Z,35.00
2017-10-10T04:15:00.018Z,32.37
2017-10-10T04:17:27.735Z,35.30
2017-10-10T04:19:55.500Z,33.00
2017-10-10T04:22:23.009Z,35.87
2017-10-10T04:24:50.712Z,32.97
2017-10-10T04:27:18.216Z,34.70
2017-10-10T04:29:45.923Z,36.43
2017-10-10T04:32:13.823Z,36.50
2017-10-10T04:34:41.468Z,35.87
2017-10-10T04:37:09.221Z,36.40
2017-10-10T04:39:36.725Z,35.83
2017-10-10T04:42:05.024Z,35.60
2017-10-10T04:44:32.816Z,33.83
2017-10-10T04:47:00.580Z,35.50
2017-10-10T04:49:28.349Z,34.80
2017-10-10T04:51:55.860Z,34.20
2017-10-10T04:54:23.581Z,35.20
2017-10-10T04:56:52.863Z,36.97
2017-10-10T04:59:20.367Z,35.70
2017-10-10T05:01:47.881Z,33.30
2017-10-10T05:04:15.561Z,35.93
2017-10-10T05:06:43.306Z,38.30
2017-10-10T05:09:10.808Z,35.57
2017-10-10T05:11:38.833Z,37.20
2017-10-10T05:14:06.348Z,34.63
2017-10-10T05:16:33.849Z,36.03
2017-10-10T05:19:01.520Z,34.93
2017-10-10T05:21:29.028Z,37.30
2017-10-10T05:23:57.012Z,36.10
2017-10-10T05:26:25.116Z,35.90
2017-10-10T05:28:54.024Z,37.70
2017-10-10T05:31:22.337Z,37.30
2017-10-10T05:33:50.622Z,38.40
2017-10-10T05:36:18.312Z,33.17
2017-10-10T05:38:46.512Z,37.17
2017-10-10T05:41:14.140Z,34.47
2017-10-10T05:43:41.654Z,35.20
2017-10-10T05:46:09.160Z,36.67
2017-10-10T05:48:36.968Z,36.00
2017-10-10T05:51:06.245Z,36.83
2017-10-10T05:53:33.765Z,34.87
2017-10-10T05:56:01.344Z,33.30
2017-10-10T05:58:29.112Z,37.30
2017-10-10T06:00:56.869Z,34.97
2017-10-10T06:03:24.638Z,35.70
2017-10-10T06:05:52.166Z,32.93
2017-10-10T06:08:19.764Z,34.30
2017-10-10T06:10:48.226Z,35.30
2017-10-10T06:13:15.728Z,37.07
2017-10-10T06:15:43.452Z,33.57
2017-10-10T06:18:11.225Z,33.47
2017-10-10T06:20:38.736Z,33.20
2017-10-10T06:23:06.245Z,35.40
2017-10-10T06:25:33.916Z,34.00
2017-10-10T06:28:01.652Z,37.00
2017-10-10T06:30:29.164Z,33.47
2017-10-10T06:32:56.677Z,35.00
2017-10-10T06:35:24.227Z,32.57
2017-10-10T06:37:51.799Z,33.70
2017-10-10T06:40:19.327Z,35.43
2017-10-10T06:42:46.833Z,34.67
2017-10-10T06:45:14.468Z,36.13
2017-10-10T06:47:41.973Z,35.80
2017-10-10T06:50:09.659Z,32.70
2017-10-10T06:52:37.448Z,32.40
2017-10-10T06:55:04.952Z,34.27
2017-10-10T06:57:32.475Z,34.03
2017-10-10T06:59:59.976Z,35.90
2017-10-10T07:02:27.606Z,35.40
2017-10-10T07:04:55.655Z,36.60
2017-10-10T07:07:23.561Z,32.80
2017-10-10T07:09:51.834Z,34.17
2017-10-10T07:12:19.851Z,36.23
2017-10-10T07:14:48.116Z,34.37
2017-10-10T07:17:15.632Z,37.50
2017-10-10T07:19:43.145Z,34.80
2017-10-10T07:22:10.659Z,36.47
2017-10-10T07:24:38.375Z,34.93
2017-10-10T07:27:05.893Z,36.20
2017-10-10T07:29:33.399Z,33.63
2017-10-10T07:32:01.361Z,37.20
2017-10-10T07:34:28.876Z,34.97
2017-10-10T07:36:56.414Z,31.83
2017-10-10T07:39:24.307Z,36.40
2017-10-10T07:41:52.429Z,37.27
2017-10-10T07:44:20.174Z,35.27
2017-10-10T07:46:47.940Z,34.10
2017-10-10T07:49:15.457Z,32.30
2017-10-10T07:51:43.156Z,32.47
2017-10-10T07:54:10.921Z,32.50
2017-10-10T07:56:38.464Z,32.00
2017-10-10T07:59:06.144Z,34.40
2017-10-10T08:01:33.653Z,34.20
2017-10-10T08:04:01.646Z,34.30
2017-10-10T08:06:29.776Z,32.33
2017-10-10T08:08:57.532Z,31.10
2017-10-10T08:11:25.267Z,30.43
2017-10-10T08:13:52.784Z,29.37
2017-10-10T08:16:20.490Z,30.20
2017-10-10T08:18:48.250Z,31.13
2017-10-10T08:21:15.760Z,29.03
2017-10-10T08:23:44.064Z,26.90
2017-10-10T08:26:11.688Z,28.00
2017-10-10T08:28:39.973Z,30.93
2017-10-10T08:31:07.685Z,29.73
2017-10-10T08:33:35.439Z,28.53
2017-10-10T08:36:02.956Z,30.40
2017-10-10T08:38:30.668Z,30.77
2017-10-10T08:40:58.431Z,24.70
2017-10-10T08:43:26.792Z,31.93
2017-10-10T08:45:54.304Z,30.60
2017-10-10T08:48:21.936Z,31.57
2017-10-10T08:50:49.488Z,33.47
2017-10-10T08:53:17.621Z,32.60
2017-10-10T08:55:45.610Z,31.90
2017-10-10T08:58:13.123Z,31.40
2017-10-10T09:00:40.631Z,33.00
2017-10-10T09:03:08.306Z,32.23
2017-10-10T09:05:35.816Z,34.47
2017-10-10T09:08:03.320Z,34.43
2017-10-10T09:10:30.844Z,33.63
2017-10-10T09:12:58.423Z,36.60
2017-10-10T09:15:27.237Z,35.50
2017-10-10T09:17:55.800Z,33.30
2017-10-10T09:20:23.315Z,35.70
2017-10-10T09:22:50.992Z,35.40
2017-10-10T09:25:18.805Z,34.37
2017-10-10T09:27:46.560Z,33.30
2017-10-10T09:30:14.080Z,38.00
2017-10-10T09:32:41.985Z,37.50
2017-10-10T09:35:09.549Z,34.20
2017-10-10T09:37:37.305Z,33.53
2017-10-10T09:40:04.819Z,35.13
2017-10-10T09:42:32.350Z,35.97
2017-10-10T09:44:59.852Z,34.03
2017-10-10T09:47:27.365Z,34.80
2017-10-10T09:49:54.881Z,31.73
2017-10-10T09:52:22.396Z,34.60
2017-10-10T09:54:50.731Z,33.70
2017-10-10T09:57:18.493Z,32.93
2017-10-10T09:59:46.003Z,34.37
2017-10-10T10:02:13.696Z,34.33
2017-10-10T10:04:41.474Z,33.37
2017-10-10T10:07:10.161Z,33.67
2017-10-10T10:09:38.314Z,32.77
2017-10-10T10:12:05.976Z,35.47
2017-10-10T10:14:33.756Z,35.67
2017-10-10T10:17:01.275Z,34.47
2017-10-10T10:19:29.768Z,37.37
2017-10-10T10:21:57.290Z,36.70
2017-10-10T10:24:26.022Z,35.33
2017-10-10T10:26:53.529Z,34.67
2017-10-10T10:29:21.568Z,32.57
2017-10-10T10:31:49.113Z,36.37
2017-10-10T10:34:16.795Z,34.07
2017-10-10T10:36:44.553Z,34.77
2017-10-10T10:39:12.979Z,35.87
2017-10-10T10:41:40.691Z,33.00
2017-10-10T10:44:08.456Z,33.40
2017-10-10T10:46:36.086Z,34.57
2017-10-10T10:49:03.953Z,34.30
2017-10-10T10:51:32.259Z,32.93
2017-10-10T10:53:59.801Z,32.13
2017-10-10T10:56:27.299Z,35.30
2017-10-10T10:58:55.036Z,30.10
2017-10-10T11:01:22.556Z,32.40
2017-10-10T11:03:50.232Z,32.30
2017-10-10T11:06:17.743Z,29.50
2017-10-10T11:08:45.453Z,30.47
2017-10-10T11:11:12.964Z,30.23
2017-10-10T11:13:40.704Z,27.10
2017-10-10T11:16:08.552Z,24.07
2017-10-10T11:18:36.240Z,25.57
2017-10-10T11:21:04.577Z,27.77
2017-10-10T11:23:32.096Z,25.57
2017-10-10T11:25:59.824Z,25.77
2017-10-10T11:28:27.356Z,23.20
2017-10-10T11:30:54.863Z,22.00
2017-10-10T11:33:22.768Z,25.40
2017-10-10T11:35:50.276Z,22.07
2017-10-10T11:38:17.780Z,22.17
2017-10-10T11:40:45.489Z,21.67
2017-10-10T11:43:13.243Z,21.03
2017-10-10T11:45:40.768Z,21.77
2017-10-10T11:48:08.436Z,22.13
2017-10-10T11:50:36.235Z,20.90
2017-10-10T11:53:03.740Z,19.00
2017-10-10T11:55:31.456Z,18.83
2017-10-10T11:57:58.956Z,19.30
2017-10-10T12:00:26.667Z,18.43
2017-10-10T12:02:54.292Z,18.80
2017-10-10T12:05:21.804Z,18.90
2017-10-10T12:07:50.081Z,21.63
2017-10-10T12:10:17.596Z,19.17
2017-10-10T12:12:45.181Z,20.73
2017-10-10T12:15:12.802Z,19.13
2017-10-10T12:17:40.400Z,19.67
2017-10-10T12:20:07.923Z,18.10
2017-10-10T12:22:35.619Z,18.10
2017-10-10T12:25:03.384Z,16.73
2017-10-10T12:27:30.892Z,17.67
2017-10-10T12:29:58.420Z,19.83
2017-10-10T12:32:25.962Z,16.73
2017-10-10T12:34:53.501Z,16.83
2017-10-10T12:37:21.005Z,16.73
2017-10-10T12:39:48.916Z,16.43
2017-10-10T12:42:16.477Z,16.13
2017-10-10T12:44:44.263Z,17.40
2017-10-10T12:47:12.208Z,13.13
2017-10-10T12:49:40.077Z,12.17
2017-10-10T12:52:07.587Z,11.73
2017-10-10T12:54:35.099Z,12.63
2017-10-10T12:57:03.437Z,14.03
2017-10-10T12:59:30.939Z,13.93
2017-10-10T13:01:58.443Z,12.13
2017-10-10T13:04:26.716Z,12.03
2017-10-10T13:06:54.407Z,11.87
2017-10-10T13:09:21.912Z,12.40
2017-10-10T13:11:49.664Z,10.97
2017-10-10T13:14:17.428Z,11.60
2017-10-10T13:16:44.942Z,12.20
2017-10-10T13:19:12.621Z,11.27
2017-10-10T13:21:40.148Z,9.70
2017-10-10T13:24:07.864Z,11.90
2017-10-10T13:26:35.633Z,11.07
2017-10-10T13:29:03.160Z,11.57
2017-10-10T13:31:30.852Z,11.80
2017-10-10T13:33:58.617Z,11.00
2017-10-10T13:36:26.132Z,11.57
2017-10-10T13:38:53.847Z,12.10
2017-10-10T13:41:21.481Z,10.87
2017-10-10T13:43:48.996Z,13.00
2017-10-10T13:46:16.509Z,14.00
2017-10-10T13:48:44.020Z,14.83
2017-10-10T13:51:11.536Z,12.43
2017-10-10T13:53:39.748Z,13.17
2017-10-10T13:56:07.252Z,15.20
2017-10-10T13:58:36.142Z,14.87
2017-10-10T14:01:03.718Z,14.10
2017-10-10T14:03:31.780Z,15.70
2017-10-10T14:05:59.289Z,18.27
2017-10-10T14:08:26.803Z,15.07
2017-10-10T14:10:54.469Z,16.93
2017-10-10T14:13:21.955Z,15.63
2017-10-10T14:15:49.463Z,16.00
2017-10-10T14:18:16.981Z,17.30
2017-10-10T14:20:44.506Z,17.03
2017-10-10T14:23:12.508Z,17.77
2017-10-10T14:25:41.449Z,19.30
2017-10-10T14:28:09.417Z,20.67
2017-10-10T14:30:37.042Z,18.67
2017-10-10T14:33:04.553Z,19.50
2017-10-10T14:35:32.068Z,20.80
2017-10-10T14:38:00.166Z,21.67
2017-10-10T14:40:28.228Z,23.50
2017-10-10T14:42:55.745Z,22.53
2017-10-10T14:45:23.457Z,15.97
2017-10-10T14:47:50.965Z,14.77
2017-10-10T14:50:18.489Z,15.40
2017-10-10T14:52:46.440Z,11.13
2017-10-10T14:55:14.160Z,12.47
2017-10-10T14:57:41.672Z,12.30
2017-10-10T15:00:09.176Z,11.80
2017-10-10T15:02:36.875Z,13.13
2017-10-10T15:05:04.600Z,14.13
2017-10-10T15:07:32.224Z,13.87
2017-10-10T15:10:01.100Z,15.00
2017-10-10T15:12:29.160Z,15.50
2017-10-10T15:14:56.936Z,11.87
2017-10-10T15:17:25.275Z,18.70
2017-10-10T15:19:52.776Z,18.20
2017-10-10T15:22:20.832Z,17.70
2017-10-10T15:24:48.338Z,18.50
2017-10-10T15:27:15.855Z,18.00
2017-10-10T15:29:44.131Z,15.23
2017-10-10T15:32:11.646Z,18.53
2017-10-10T15:34:39.205Z,18.60
2017-10-10T15:37:06.771Z,21.93
2017-10-10T15:39:34.280Z,20.33
2017-10-10T15:42:01.800Z,20.30
2017-10-10T15:44:29.441Z,17.00
2017-10-10T15:46:56.972Z,22.50
2017-10-10T15:49:25.300Z,22.30
2017-10-10T15:51:52.903Z,22.50
2017-10-10T15:54:21.183Z,22.00
2017-10-10T15:56:48.912Z,32.20
2017-10-10T15:59:16.683Z,22.00
2017-10-10T16:01:44.196Z,22.80
2017-10-10T16:04:11.861Z,22.00
2017-10-10T16:06:39.927Z,23.83
2017-10-10T16:09:07.454Z,24.60
2017-10-10T16:11:36.039Z,23.73
2017-10-10T16:14:03.563Z,26.00
2017-10-10T16:16:32.584Z,28.77
2017-10-10T16:19:00.612Z,27.57
2017-10-10T16:21:28.121Z,28.60
2017-10-10T16:23:55.844Z,31.20
2017-10-10T16:26:23.915Z,24.07
2017-10-10T16:28:52.281Z,31.17
2017-10-10T16:31:20.977Z,28.87
2017-10-10T16:33:48.888Z,30.87
2017-10-10T16:36:17.420Z,30.87
2017-10-10T16:38:44.940Z,30.20
2017-10-10T16:41:12.616Z,31.33
2017-10-10T16:43:40.140Z,34.47
2017-10-10T16:46:07.859Z,33.20
2017-10-10T16:48:36.235Z,32.97
2017-10-10T16:51:04.308Z,36.97
2017-10-10T16:53:32.086Z,33.73
2017-10-10T16:56:00.324Z,33.73
2017-10-10T16:58:27.824Z,37.47
2017-10-10T17:00:56.263Z,34.20
2017-10-10T17:03:23.772Z,36.40
2017-10-10T17:05:51.290Z,37.60
2017-10-10T17:08:18.961Z,33.33
2017-10-10T17:10:46.896Z,35.50
2017-10-10T17:13:15.802Z,39.30
2017-10-10T17:15:43.307Z,35.80
2017-10-10T17:18:10.835Z,36.30
2017-10-10T17:20:38.339Z,40.07
2017-10-10T17:23:05.856Z,43.80
2017-10-10T17:25:34.220Z,39.73
2017-10-10T17:28:02.276Z,41.40
2017-10-10T17:30:29.785Z,45.37
2017-10-10T17:32:57.389Z,43.57
2017-10-10T17:35:25.672Z,46.47
2017-10-10T17:37:53.865Z,44.80
2017-10-10T17:40:21.428Z,38.07
2017-10-10T17:42:48.943Z,36.43
2017-10-10T17:45:16.651Z,39.50
2017-10-10T17:47:45.026Z,37.93
2017-10-10T17:50:13.595Z,36.50
2017-10-10T17:52:41.505Z,35.63
2017-10-10T17:55:09.559Z,40.13
2017-10-10T17:57:37.320Z,37.67
2017-10-10T18:00:05.093Z,37.27
2017-10-10T18:02:32.613Z,34.77
2017-10-10T18:05:01.257Z,36.23
2017-10-10T18:07:29.216Z,38.47
2017-10-10T18:09:57.126Z,32.77
2017-10-10T18:12:25.941Z,34.03
2017-10-10T18:14:53.448Z,34.27
2017-10-10T18:17:21.742Z,34.00
2017-10-10T18:19:49.377Z,34.37
2017-10-10T18:22:16.912Z,31.10
2017-10-10T18:24:45.193Z,33.80
2017-10-10T18:27:13.217Z,34.40
2017-10-10T18:29:41.017Z,30.63
2017-10-10T18:32:09.080Z,29.70
2017-10-10T18:34:38.114Z,34.30
2017-10-10T18:37:06.576Z,32.70
2017-10-10T18:39:35.136Z,34.00
2017-10-10T18:42:02.649Z,32.47
2017-10-10T18:44:30.354Z,29.43
2017-10-10T18:46:57.857Z,31.10
2017-10-10T18:49:25.849Z,29.20
2017-10-10T18:51:53.795Z,27.73
2017-10-10T18:54:23.192Z,28.40
2017-10-10T18:56:50.706Z,27.53
2017-10-10T18:59:18.215Z,29.00
2017-10-10T19:01:46.133Z,28.83
2017-10-10T19:04:13.650Z,29.90
2017-10-10T19:06:41.449Z,27.50
2017-10-10T19:09:08.956Z,27.77
2017-10-10T19:11:36.872Z,30.23
2017-10-10T19:14:04.553Z,26.27
2017-10-10T19:16:32.188Z,26.93
2017-10-10T19:18:59.728Z,32.20
2017-10-10T19:21:27.421Z,24.60
2017-10-10T19:23:55.496Z,26.77
2017-10-10T19:26:23.378Z,26.70
2017-10-10T19:28:51.028Z,24.00
2017-10-10T19:31:19.006Z,26.00
2017-10-10T19:33:47.425Z,26.70
2017-10-10T19:36:14.935Z,26.77
2017-10-10T19:38:43.148Z,26.30
2017-10-10T19:41:10.770Z,25.87
2017-10-10T19:43:38.671Z,25.40
2017-10-10T19:46:06.192Z,20.40
2017-10-10T19:48:34.505Z,23.30
2017-10-10T19:51:02.827Z,21.60
2017-10-10T19:53:30.764Z,21.70
2017-10-10T19:55:58.277Z,20.60
2017-10-10T19:58:26.020Z,20.13
2017-10-10T20:00:53.532Z,20.77
2017-10-10T20:03:21.576Z,20.20
2017-10-10T20:05:49.232Z,21.23
2017-10-10T20:08:17.508Z,21.10
2017-10-10T20:10:45.152Z,20.40
2017-10-10T20:13:12.652Z,17.27
2017-10-10T20:15:40.375Z,17.53
2017-10-10T20:18:08.140Z,20.13
2017-10-10T20:20:35.643Z,19.80
2017-10-10T20:23:03.329Z,18.87
2017-10-10T20:25:31.235Z,22.73
2017-10-10T20:27:58.889Z,21.47
2017-10-10T20:30:26.651Z,19.90
2017-10-10T20:32:54.417Z,18.97
2017-10-10T20:35:23.713Z,17.27
2017-10-10T20:37:52.731Z,18.93
2017-10-10T20:40:20.243Z,18.80
2017-10-10T20:42:47.824Z,17.73
2017-10-10T20:45:15.344Z,16.20
2017-10-10T20:47:42.860Z,18.00
2017-10-10T20:50:10.566Z,17.73
2017-10-10T20:52:38.970Z,18.50
2017-10-10T20:55:07.052Z,16.70
2017-10-10T20:57:34.556Z,19.13
2017-10-10T21:00:02.090Z,17.93
2017-10-10T21:02:30.636Z,18.07
2017-10-10T21:04:58.541Z,19.70
2017-10-10T21:07:26.811Z,18.00
2017-10-10T21:09:54.335Z,19.00
2017-10-10T21:12:21.970Z,19.63
2017-10-10T21:14:50.101Z,18.47
2017-10-10T21:17:17.602Z,16.03
2017-10-10T21:19:45.121Z,18.33
2017-10-10T21:22:13.396Z,19.27
2017-10-10T21:24:41.139Z,17.57
2017-10-10T21:27:09.043Z,18.83
2017-10-10T21:29:37.324Z,17.70
2017-10-10T21:32:05.103Z,16.37
2017-10-10T21:34:32.773Z,17.60
2017-10-10T21:37:00.677Z,21.30
2017-10-10T21:39:28.624Z,21.50
2017-10-10T21:41:56.387Z,14.40
2017-10-10T21:44:24.256Z,18.00
2017-10-10T21:46:52.343Z,16.90
2017-10-10T21:49:19.965Z,19.50
2017-10-10T21:51:48.129Z,18.63
2017-10-10T21:54:15.653Z,18.83
2017-10-10T21:56:43.256Z,18.30
2017-10-10T21:59:10.765Z,19.63
2017-10-10T22:01:38.290Z,19.07
2017-10-10T22:04:05.964Z,18.90
2017-10-10T22:06:33.485Z,19.97
2017-10-10T22:09:01.148Z,21.30
2017-10-10T22:11:28.652Z,20.73
2017-10-10T22:13:57.944Z,20.33
2017-10-10T22:16:25.666Z,22.77
2017-10-10T22:18:53.199Z,22.07
2017-10-10T22:21:20.720Z,27.00
2017-10-10T22:23:48.380Z,25.17
2017-10-10T22:26:15.893Z,21.87
2017-10-10T22:28:43.596Z,21.50
2017-10-10T22:31:11.353Z,24.00
2017-10-10T22:33:38.916Z,23.43
2017-10-10T22:36:06.540Z,23.70
2017-10-10T22:38:34.613Z,24.37
2017-10-10T22:41:02.412Z,22.77
2017-10-10T22:43:29.916Z,22.00
2017-10-10T22:45:57.432Z,23.97
2017-10-10T22:48:25.051Z,23.20
2017-10-10T22:50:53.136Z,20.40
2017-10-10T22:53:20.921Z,22.40
2017-10-10T22:55:48.927Z,23.20
2017-10-10T22:58:17.064Z,18.33
2017-10-10T23:00:44.964Z,20.20
2017-10-10T23:03:13.241Z,22.50
2017-10-10T23:05:40.928Z,19.90
2017-10-10T23:08:09.656Z,19.70
2017-10-10T23:10:37.164Z,17.57
2017-10-10T23:13:04.690Z,18.70
2017-10-10T23:15:32.199Z,19.37
2017-10-10T23:17:59.708Z,19.90
2017-10-10T23:20:27.980Z,20.53
2017-10-10T23:22:55.504Z,20.07
2017-10-10T23:25:23.012Z,21.60
2017-10-10T23:27:50.530Z,21.40
2017-10-10T23:30:18.295Z,23.23
2017-10-10T23:32:46.676Z,21.00
2017-10-10T23:35:14.949Z,20.80
2017-10-10T23:37:43.253Z,23.57
2017-10-10T23:40:11.520Z,23.07
2017-10-10T23:42:39.420Z,21.80
2017-10-10T23:45:06.940Z,21.50
2017-10-10T23:47:34.445Z,21.70
2017-10-10T23:50:01.983Z,21.97
2017-10-10T23:52:29.486Z,21.90
2017-10-10T23:54:56.993Z,22.00
2017-10-10T23:57:25.265Z,18.37
2017-10-10T23:59:52.992Z,20.70
